sensor_id;sensor_type;location;lat;lon;timestamp;pressure;altitude;pressure_sealevel;temperature;humidity
30636;BME280;17400;52.392;9.750;2023-01-10T00:00:00;100197.53;;;7.99;100.00
30636;BME280;17400;52.392;9.750;2023-01-10T00:02:27;100199.69;;;8.04;100.00
30636;BME280;17400;52.392;9.750;2023-01-10T00:04:55;100202.88;;;7.92;100.00
30636;BME280;17400;52.392;9.750;2023-01-10T00:07:24;100206.88;;;7.96;100.00
30636;BME280;17400;52.392;9.750;2023-01-10T00:09:52;100217.41;;;7.91;100.00
30636;BME280;17400;52.392;9.750;2023-01-10T00:12:20;100206.56;;;7.84;100.00
30636;BME280;17400;52.392;9.750;2023-01-10T00:15:05;100217.56;;;7.90;100.00
30636;BME280;17400;52.392;9.750;2023-01-10T00:17:33;100213.66;;;7.92;100.00
30636;BME280;17400;52.392;9.750;2023-01-10T00:20:01;100213.50;;;7.94;100.00
30636;BME280;17400;52.392;9.750;2023-01-10T00:22:30;100221.63;;;8.00;100.00
30636;BME280;17400;52.392;9.750;2023-01-10T00:24:57;100229.81;;;7.92;100.00
30636;BME280;17400;52.392;9.750;2023-01-10T00:27:25;100235.59;;;7.89;100.00
30636;BME280;17400;52.392;9.750;2023-01-10T00:29:52;100231.16;;;7.81;100.00
30636;BME280;17400;52.392;9.750;2023-01-10T00:32:21;100229.81;;;7.71;100.00
30636;BME280;17400;52.392;9.750;2023-01-10T00:34:49;100235.66;;;7.74;100.00
30636;BME280;17400;52.392;9.750;2023-01-10T00:37:17;100239.31;;;7.88;100.00
30636;BME280;17400;52.392;9.750;2023-01-10T00:39:46;100251.84;;;7.96;100.00
30636;BME280;17400;52.392;9.750;2023-01-10T00:42:14;100257.91;;;7.98;100.00
30636;BME280;17400;52.392;9.750;2023-01-10T00:44:59;100251.91;;;8.03;100.00
30636;BME280;17400;52.392;9.750;2023-01-10T00:47:27;100259.88;;;7.89;100.00
30636;BME280;17400;52.392;9.750;2023-01-10T00:49:54;100261.81;;;7.80;100.00
30636;BME280;17400;52.392;9.750;2023-01-10T00:52:22;100279.13;;;7.71;100.00
30636;BME280;17400;52.392;9.750;2023-01-10T00:54:51;100277.03;;;7.66;100.00
30636;BME280;17400;52.392;9.750;2023-01-10T00:57:18;100284.09;;;7.67;100.00
30636;BME280;17400;52.392;9.750;2023-01-10T00:59:46;100288.78;;;7.80;100.00
30636;BME280;17400;52.392;9.750;2023-01-10T01:02:14;100288.63;;;7.82;100.00
30636;BME280;17400;52.392;9.750;2023-01-10T01:04:41;100293.63;;;7.85;100.00
30636;BME280;17400;52.392;9.750;2023-01-10T01:07:09;100295.47;;;7.84;100.00
30636;BME280;17400;52.392;9.750;2023-01-10T01:09:37;100302.78;;;7.91;100.00
30636;BME280;17400;52.392;9.750;2023-01-10T01:12:26;100317.22;;;7.83;100.00
30636;BME280;17400;52.392;9.750;2023-01-10T01:14:54;100331.25;;;7.78;100.00
30636;BME280;17400;52.392;9.750;2023-01-10T01:17:21;100336.06;;;7.83;100.00
30636;BME280;17400;52.392;9.750;2023-01-10T01:19:50;100340.06;;;7.87;100.00
30636;BME280;17400;52.392;9.750;2023-01-10T01:22:18;100347.72;;;7.83;100.00
30636;BME280;17400;52.392;9.750;2023-01-10T01:24:46;100341.66;;;7.81;100.00
30636;BME280;17400;52.392;9.750;2023-01-10T01:27:13;100349.38;;;7.84;100.00
30636;BME280;17400;52.392;9.750;2023-01-10T01:29:42;100359.78;;;7.88;100.00
30636;BME280;17400;52.392;9.750;2023-01-10T01:32:10;100364.69;;;7.84;100.00
30636;BME280;17400;52.392;9.750;2023-01-10T01:34:38;100371.28;;;7.81;100.00
30636;BME280;17400;52.392;9.750;2023-01-10T01:37:07;100379.38;;;7.81;100.00
30636;BME280;17400;52.392;9.750;2023-01-10T01:39:34;100379.84;;;7.85;100.00
30636;BME280;17400;52.392;9.750;2023-01-10T01:42:03;100386.06;;;7.86;100.00
30636;BME280;17400;52.392;9.750;2023-01-10T01:44:32;100397.34;;;7.74;100.00
30636;BME280;17400;52.392;9.750;2023-01-10T01:47:05;100408.03;;;7.67;100.00
30636;BME280;17400;52.392;9.750;2023-01-10T01:49:35;100411.53;;;7.68;100.00
30636;BME280;17400;52.392;9.750;2023-01-10T01:52:07;100419.09;;;7.73;100.00
30636;BME280;17400;52.392;9.750;2023-01-10T01:54:37;100420.72;;;7.74;100.00
30636;BME280;17400;52.392;9.750;2023-01-10T01:57:10;100428.91;;;7.80;100.00
30636;BME280;17400;52.392;9.750;2023-01-10T01:59:40;100433.09;;;7.83;100.00
30636;BME280;17400;52.392;9.750;2023-01-10T02:02:14;100425.28;;;7.88;100.00
30636;BME280;17400;52.392;9.750;2023-01-10T02:04:48;100435.97;;;7.81;100.00
30636;BME280;17400;52.392;9.750;2023-01-10T02:07:17;100435.34;;;7.79;100.00
30636;BME280;17400;52.392;9.750;2023-01-10T02:09:48;100443.22;;;7.81;100.00
30636;BME280;17400;52.392;9.750;2023-01-10T02:12:17;100445.06;;;7.65;100.00
30636;BME280;17400;52.392;9.750;2023-01-10T02:14:48;100453.81;;;7.67;100.00
30636;BME280;17400;52.392;9.750;2023-01-10T02:17:18;100453.63;;;7.69;100.00
30636;BME280;17400;52.392;9.750;2023-01-10T02:19:49;100461.06;;;7.67;100.00
30636;BME280;17400;52.392;9.750;2023-01-10T02:22:52;100471.72;;;7.45;100.00
30636;BME280;17400;52.392;9.750;2023-01-10T02:25:59;100474.41;;;7.45;100.00
30636;BME280;17400;52.392;9.750;2023-01-10T02:28:59;100470.41;;;7.41;100.00
30636;BME280;17400;52.392;9.750;2023-01-10T02:34:35;100479.50;;;7.40;100.00
30636;BME280;17400;52.392;9.750;2023-01-10T02:37:11;100483.75;;;7.34;100.00
30636;BME280;17400;52.392;9.750;2023-01-10T02:39:54;100488.59;;;7.39;100.00
30636;BME280;17400;52.392;9.750;2023-01-10T02:42:28;100493.63;;;7.42;100.00
30636;BME280;17400;52.392;9.750;2023-01-10T02:45:02;100491.03;;;7.49;100.00
30636;BME280;17400;52.392;9.750;2023-01-10T02:47:34;100486.69;;;7.63;100.00
30636;BME280;17400;52.392;9.750;2023-01-10T02:50:24;100499.44;;;7.69;100.00
30636;BME280;17400;52.392;9.750;2023-01-10T02:52:56;100505.75;;;7.61;100.00
30636;BME280;17400;52.392;9.750;2023-01-10T02:55:32;100507.41;;;7.62;100.00
30636;BME280;17400;52.392;9.750;2023-01-10T02:58:09;100513.91;;;7.53;100.00
30636;BME280;17400;52.392;9.750;2023-01-10T03:00:44;100522.50;;;7.48;100.00
30636;BME280;17400;52.392;9.750;2023-01-10T03:03:25;100519.22;;;7.61;100.00
30636;BME280;17400;52.392;9.750;2023-01-10T03:06:10;100524.31;;;7.56;100.00
30636;BME280;17400;52.392;9.750;2023-01-10T03:08:47;100537.59;;;7.58;100.00
30636;BME280;17400;52.392;9.750;2023-01-10T03:11:17;100541.78;;;7.60;100.00
30636;BME280;17400;52.392;9.750;2023-01-10T03:14:07;100538.88;;;7.62;100.00
30636;BME280;17400;52.392;9.750;2023-01-10T03:16:39;100537.34;;;7.67;100.00
30636;BME280;17400;52.392;9.750;2023-01-10T03:19:11;100540.94;;;7.60;100.00
30636;BME280;17400;52.392;9.750;2023-01-10T03:21:42;100544.84;;;7.57;100.00
30636;BME280;17400;52.392;9.750;2023-01-10T03:24:13;100553.44;;;7.53;100.00
30636;BME280;17400;52.392;9.750;2023-01-10T03:26:47;100561.06;;;7.49;100.00
30636;BME280;17400;52.392;9.750;2023-01-10T03:29:20;100562.88;;;7.57;100.00
30636;BME280;17400;52.392;9.750;2023-01-10T03:31:54;100563.88;;;7.56;100.00
30636;BME280;17400;52.392;9.750;2023-01-10T03:34:24;100563.53;;;7.36;100.00
30636;BME280;17400;52.392;9.750;2023-01-10T03:36:59;100571.97;;;7.32;100.00
30636;BME280;17400;52.392;9.750;2023-01-10T03:39:32;100586.09;;;7.34;100.00
30636;BME280;17400;52.392;9.750;2023-01-10T03:42:06;100579.50;;;7.37;100.00
30636;BME280;17400;52.392;9.750;2023-01-10T03:44:39;100584.00;;;7.45;100.00
30636;BME280;17400;52.392;9.750;2023-01-10T03:47:14;100600.50;;;7.42;100.00
30636;BME280;17400;52.392;9.750;2023-01-10T03:49:45;100598.66;;;7.42;100.00
30636;BME280;17400;52.392;9.750;2023-01-10T03:52:17;100610.75;;;7.46;100.00
30636;BME280;17400;52.392;9.750;2023-01-10T03:54:46;100607.44;;;7.36;100.00
30636;BME280;17400;52.392;9.750;2023-01-10T03:57:16;100616.84;;;7.40;100.00
30636;BME280;17400;52.392;9.750;2023-01-10T03:59:44;100612.84;;;7.36;100.00
30636;BME280;17400;52.392;9.750;2023-01-10T04:02:12;100619.25;;;7.35;100.00
30636;BME280;17400;52.392;9.750;2023-01-10T04:04:40;100626.75;;;7.16;100.00
30636;BME280;17400;52.392;9.750;2023-01-10T04:07:07;100625.69;;;7.26;100.00
30636;BME280;17400;52.392;9.750;2023-01-10T04:09:36;100626.31;;;7.36;100.00
30636;BME280;17400;52.392;9.750;2023-01-10T04:12:04;100629.63;;;7.46;100.00
30636;BME280;17400;52.392;9.750;2023-01-10T04:14:32;100630.44;;;7.47;100.00
30636;BME280;17400;52.392;9.750;2023-01-10T04:17:00;100638.53;;;7.47;100.00
30636;BME280;17400;52.392;9.750;2023-01-10T04:19:27;100636.00;;;7.45;100.00
30636;BME280;17400;52.392;9.750;2023-01-10T04:21:55;100652.09;;;7.54;100.00
30636;BME280;17400;52.392;9.750;2023-01-10T04:24:23;100653.25;;;7.59;100.00
30636;BME280;17400;52.392;9.750;2023-01-10T04:26:51;100659.50;;;7.60;100.00
30636;BME280;17400;52.392;9.750;2023-01-10T04:29:19;100666.94;;;7.49;100.00
30636;BME280;17400;52.392;9.750;2023-01-10T04:31:47;100673.03;;;7.43;100.00
30636;BME280;17400;52.392;9.750;2023-01-10T04:34:15;100679.28;;;7.44;100.00
30636;BME280;17400;52.392;9.750;2023-01-10T04:36:45;100687.50;;;7.50;100.00
30636;BME280;17400;52.392;9.750;2023-01-10T04:39:16;100686.78;;;7.57;100.00
30636;BME280;17400;52.392;9.750;2023-01-10T04:41:43;100693.50;;;7.61;100.00
30636;BME280;17400;52.392;9.750;2023-01-10T04:44:12;100699.00;;;7.67;100.00
30636;BME280;17400;52.392;9.750;2023-01-10T04:46:40;100691.75;;;7.68;100.00
30636;BME280;17400;52.392;9.750;2023-01-10T04:49:08;100694.31;;;7.61;100.00
30636;BME280;17400;52.392;9.750;2023-01-10T04:51:36;100700.28;;;7.48;100.00
30636;BME280;17400;52.392;9.750;2023-01-10T04:54:03;100697.41;;;7.50;100.00
30636;BME280;17400;52.392;9.750;2023-01-10T04:56:31;100702.97;;;7.57;100.00
30636;BME280;17400;52.392;9.750;2023-01-10T04:58:59;100707.63;;;7.63;100.00
30636;BME280;17400;52.392;9.750;2023-01-10T05:01:28;100707.75;;;7.70;100.00
30636;BME280;17400;52.392;9.750;2023-01-10T05:03:55;100725.22;;;7.74;100.00
30636;BME280;17400;52.392;9.750;2023-01-10T05:06:23;100722.91;;;7.71;100.00
30636;BME280;17400;52.392;9.750;2023-01-10T05:08:51;100725.59;;;7.71;100.00
30636;BME280;17400;52.392;9.750;2023-01-10T05:11:19;100722.22;;;7.68;100.00
30636;BME280;17400;52.392;9.750;2023-01-10T05:13:47;100729.84;;;7.65;100.00
30636;BME280;17400;52.392;9.750;2023-01-10T05:16:15;100739.44;;;7.59;100.00
30636;BME280;17400;52.392;9.750;2023-01-10T05:18:44;100737.63;;;7.60;100.00
30636;BME280;17400;52.392;9.750;2023-01-10T05:21:12;100738.94;;;7.64;100.00
30636;BME280;17400;52.392;9.750;2023-01-10T05:23:40;100751.22;;;7.66;100.00
30636;BME280;17400;52.392;9.750;2023-01-10T05:26:09;100759.22;;;7.52;100.00
30636;BME280;17400;52.392;9.750;2023-01-10T05:28:38;100764.09;;;7.48;100.00
30636;BME280;17400;52.392;9.750;2023-01-10T05:31:07;100772.69;;;7.52;100.00
30636;BME280;17400;52.392;9.750;2023-01-10T05:33:35;100777.72;;;7.55;100.00
30636;BME280;17400;52.392;9.750;2023-01-10T05:36:05;100774.75;;;7.41;100.00
30636;BME280;17400;52.392;9.750;2023-01-10T05:38:33;100775.41;;;7.43;100.00
30636;BME280;17400;52.392;9.750;2023-01-10T05:41:00;100779.78;;;7.44;100.00
30636;BME280;17400;52.392;9.750;2023-01-10T05:43:28;100783.28;;;7.53;100.00
30636;BME280;17400;52.392;9.750;2023-01-10T05:45:56;100785.97;;;7.53;100.00
30636;BME280;17400;52.392;9.750;2023-01-10T05:48:23;100784.47;;;7.50;100.00
30636;BME280;17400;52.392;9.750;2023-01-10T05:50:52;100797.47;;;7.39;100.00
30636;BME280;17400;52.392;9.750;2023-01-10T05:53:21;100794.56;;;7.48;100.00
30636;BME280;17400;52.392;9.750;2023-01-10T05:55:53;100813.41;;;7.57;100.00
30636;BME280;17400;52.392;9.750;2023-01-10T05:58:21;100813.38;;;7.65;100.00
30636;BME280;17400;52.392;9.750;2023-01-10T06:00:49;100820.44;;;7.66;100.00
30636;BME280;17400;52.392;9.750;2023-01-10T06:03:18;100828.16;;;7.69;100.00
30636;BME280;17400;52.392;9.750;2023-01-10T06:05:46;100839.25;;;7.74;100.00
30636;BME280;17400;52.392;9.750;2023-01-10T06:08:14;100839.59;;;7.71;100.00
30636;BME280;17400;52.392;9.750;2023-01-10T06:10:43;100839.44;;;7.73;100.00
30636;BME280;17400;52.392;9.750;2023-01-10T06:13:11;100846.03;;;7.62;100.00
30636;BME280;17400;52.392;9.750;2023-01-10T06:15:39;100842.53;;;7.53;100.00
30636;BME280;17400;52.392;9.750;2023-01-10T06:18:07;100848.13;;;7.52;100.00
30636;BME280;17400;52.392;9.750;2023-01-10T06:20:37;100847.56;;;7.56;100.00
30636;BME280;17400;52.392;9.750;2023-01-10T06:23:05;100863.59;;;7.49;100.00
30636;BME280;17400;52.392;9.750;2023-01-10T06:25:34;100872.03;;;7.38;100.00
30636;BME280;17400;52.392;9.750;2023-01-10T06:28:07;100871.38;;;7.36;100.00
30636;BME280;17400;52.392;9.750;2023-01-10T06:30:35;100881.31;;;7.36;100.00
30636;BME280;17400;52.392;9.750;2023-01-10T06:33:04;100884.50;;;7.39;100.00
30636;BME280;17400;52.392;9.750;2023-01-10T06:35:32;100879.47;;;7.36;100.00
30636;BME280;17400;52.392;9.750;2023-01-10T06:38:01;100878.28;;;7.39;100.00
30636;BME280;17400;52.392;9.750;2023-01-10T06:40:29;100891.91;;;7.29;100.00
30636;BME280;17400;52.392;9.750;2023-01-10T06:42:56;100890.56;;;7.25;100.00
30636;BME280;17400;52.392;9.750;2023-01-10T06:45:26;100894.31;;;7.24;100.00
30636;BME280;17400;52.392;9.750;2023-01-10T06:47:54;100906.75;;;7.16;100.00
30636;BME280;17400;52.392;9.750;2023-01-10T06:50:22;100906.41;;;7.20;100.00
30636;BME280;17400;52.392;9.750;2023-01-10T06:52:54;100919.88;;;7.20;100.00
30636;BME280;17400;52.392;9.750;2023-01-10T06:55:23;100915.66;;;7.25;100.00
30636;BME280;17400;52.392;9.750;2023-01-10T06:57:55;100918.00;;;7.28;100.00
30636;BME280;17400;52.392;9.750;2023-01-10T07:00:23;100914.81;;;7.25;100.00
30636;BME280;17400;52.392;9.750;2023-01-10T07:02:54;100907.75;;;7.32;100.00
30636;BME280;17400;52.392;9.750;2023-01-10T07:05:22;100910.94;;;7.36;100.00
30636;BME280;17400;52.392;9.750;2023-01-10T07:07:51;100917.34;;;7.34;100.00
30636;BME280;17400;52.392;9.750;2023-01-10T07:10:20;100922.72;;;7.34;100.00
30636;BME280;17400;52.392;9.750;2023-01-10T07:12:47;100930.31;;;7.23;100.00
30636;BME280;17400;52.392;9.750;2023-01-10T07:15:15;100925.44;;;7.26;100.00
30636;BME280;17400;52.392;9.750;2023-01-10T07:17:43;100925.59;;;7.33;100.00
30636;BME280;17400;52.392;9.750;2023-01-10T07:20:12;100919.19;;;7.34;100.00
30636;BME280;17400;52.392;9.750;2023-01-10T07:22:40;100933.66;;;7.25;100.00
30636;BME280;17400;52.392;9.750;2023-01-10T07:25:08;100930.97;;;7.25;100.00
30636;BME280;17400;52.392;9.750;2023-01-10T07:27:35;100939.75;;;7.19;100.00
30636;BME280;17400;52.392;9.750;2023-01-10T07:30:06;100946.13;;;7.17;100.00
30636;BME280;17400;52.392;9.750;2023-01-10T07:32:34;100953.88;;;7.21;100.00
30636;BME280;17400;52.392;9.750;2023-01-10T07:35:02;100961.63;;;7.24;100.00
30636;BME280;17400;52.392;9.750;2023-01-10T07:37:31;100960.25;;;7.20;100.00
30636;BME280;17400;52.392;9.750;2023-01-10T07:39:59;100959.25;;;7.12;100.00
30636;BME280;17400;52.392;9.750;2023-01-10T07:42:27;100961.13;;;7.12;100.00
30636;BME280;17400;52.392;9.750;2023-01-10T07:44:54;100972.72;;;7.04;100.00
30636;BME280;17400;52.392;9.750;2023-01-10T07:47:22;100978.09;;;7.12;100.00
30636;BME280;17400;52.392;9.750;2023-01-10T07:49:50;100977.09;;;7.13;100.00
30636;BME280;17400;52.392;9.750;2023-01-10T07:52:17;100967.00;;;7.24;100.00
30636;BME280;17400;52.392;9.750;2023-01-10T07:54:46;100972.03;;;7.27;100.00
30636;BME280;17400;52.392;9.750;2023-01-10T07:57:14;100961.94;;;7.29;100.00
30636;BME280;17400;52.392;9.750;2023-01-10T07:59:42;100979.44;;;7.25;100.00
30636;BME280;17400;52.392;9.750;2023-01-10T08:02:10;100974.91;;;7.25;100.00
30636;BME280;17400;52.392;9.750;2023-01-10T08:04:38;100980.47;;;7.24;100.00
30636;BME280;17400;52.392;9.750;2023-01-10T08:07:06;100979.44;;;7.25;100.00
30636;BME280;17400;52.392;9.750;2023-01-10T08:09:33;100980.97;;;7.19;100.00
30636;BME280;17400;52.392;9.750;2023-01-10T08:12:02;100988.22;;;7.27;100.00
30636;BME280;17400;52.392;9.750;2023-01-10T08:14:30;100992.75;;;7.26;100.00
30636;BME280;17400;52.392;9.750;2023-01-10T08:16:58;101000.16;;;7.32;100.00
30636;BME280;17400;52.392;9.750;2023-01-10T08:19:26;101002.31;;;7.29;100.00
30636;BME280;17400;52.392;9.750;2023-01-10T08:21:54;101004.84;;;7.22;100.00
30636;BME280;17400;52.392;9.750;2023-01-10T08:24:22;101006.88;;;7.28;100.00
30636;BME280;17400;52.392;9.750;2023-01-10T08:26:49;101009.22;;;7.31;100.00
30636;BME280;17400;52.392;9.750;2023-01-10T08:29:18;101017.81;;;7.35;100.00
30636;BME280;17400;52.392;9.750;2023-01-10T08:31:46;101009.09;;;7.33;100.00
30636;BME280;17400;52.392;9.750;2023-01-10T08:34:13;101016.47;;;7.31;100.00
30636;BME280;17400;52.392;9.750;2023-01-10T08:36:41;101022.22;;;7.28;100.00
30636;BME280;17400;52.392;9.750;2023-01-10T08:39:09;101021.03;;;7.30;100.00
30636;BME280;17400;52.392;9.750;2023-01-10T08:41:37;101030.59;;;7.25;100.00
30636;BME280;17400;52.392;9.750;2023-01-10T08:44:07;101038.84;;;7.31;100.00
30636;BME280;17400;52.392;9.750;2023-01-10T08:46:38;101019.34;;;7.29;100.00
30636;BME280;17400;52.392;9.750;2023-01-10T08:49:06;101013.28;;;7.27;100.00
30636;BME280;17400;52.392;9.750;2023-01-10T08:51:34;101002.84;;;7.32;100.00
30636;BME280;17400;52.392;9.750;2023-01-10T08:54:02;100992.22;;;7.39;100.00
30636;BME280;17400;52.392;9.750;2023-01-10T08:56:30;100997.13;;;7.44;100.00
30636;BME280;17400;52.392;9.750;2023-01-10T08:58:58;101000.97;;;7.49;100.00
30636;BME280;17400;52.392;9.750;2023-01-10T09:01:26;100994.59;;;7.50;100.00
30636;BME280;17400;52.392;9.750;2023-01-10T09:03:55;101012.09;;;7.55;100.00
30636;BME280;17400;52.392;9.750;2023-01-10T09:06:23;101018.50;;;7.54;100.00
30636;BME280;17400;52.392;9.750;2023-01-10T09:08:51;101022.53;;;7.49;100.00
30636;BME280;17400;52.392;9.750;2023-01-10T09:11:19;101028.94;;;7.57;100.00
30636;BME280;17400;52.392;9.750;2023-01-10T09:13:47;101031.97;;;7.54;100.00
30636;BME280;17400;52.392;9.750;2023-01-10T09:16:15;101032.63;;;7.47;100.00
30636;BME280;17400;52.392;9.750;2023-01-10T09:18:43;101043.91;;;7.43;100.00
30636;BME280;17400;52.392;9.750;2023-01-10T09:21:12;101038.00;;;7.47;100.00
30636;BME280;17400;52.392;9.750;2023-01-10T09:23:40;101057.53;;;7.58;100.00
30636;BME280;17400;52.392;9.750;2023-01-10T09:26:09;101056.19;;;7.54;100.00
30636;BME280;17400;52.392;9.750;2023-01-10T09:28:36;101061.28;;;7.57;100.00
30636;BME280;17400;52.392;9.750;2023-01-10T09:31:06;101057.06;;;7.54;100.00
30636;BME280;17400;52.392;9.750;2023-01-10T09:33:34;101060.25;;;7.58;100.00
30636;BME280;17400;52.392;9.750;2023-01-10T09:36:14;101072.72;;;7.59;100.00
30636;BME280;17400;52.392;9.750;2023-01-10T09:38:41;101066.66;;;7.65;100.00
30636;BME280;17400;52.392;9.750;2023-01-10T09:41:38;101085.34;;;7.58;100.00
30636;BME280;17400;52.392;9.750;2023-01-10T09:44:18;101082.13;;;7.63;100.00
30636;BME280;17400;52.392;9.750;2023-01-10T09:46:58;101093.91;;;7.62;100.00
30636;BME280;17400;52.392;9.750;2023-01-10T09:49:43;101084.31;;;7.59;100.00
30636;BME280;17400;52.392;9.750;2023-01-10T09:52:21;101094.94;;;7.44;100.00
30636;BME280;17400;52.392;9.750;2023-01-10T09:54:51;101098.97;;;7.48;100.00
30636;BME280;17400;52.392;9.750;2023-01-10T09:57:20;101105.88;;;7.59;100.00
30636;BME280;17400;52.392;9.750;2023-01-10T09:59:50;101119.53;;;7.66;100.00
30636;BME280;17400;52.392;9.750;2023-01-10T10:02:25;101103.88;;;7.61;100.00
30636;BME280;17400;52.392;9.750;2023-01-10T10:05:03;101098.81;;;7.58;100.00
30636;BME280;17400;52.392;9.750;2023-01-10T10:07:36;101100.66;;;7.58;100.00
30636;BME280;17400;52.392;9.750;2023-01-10T10:10:05;101109.78;;;7.57;100.00
30636;BME280;17400;52.392;9.750;2023-01-10T10:12:38;101099.97;;;7.47;100.00
30636;BME280;17400;52.392;9.750;2023-01-10T10:15:17;101095.44;;;7.56;100.00
30636;BME280;17400;52.392;9.750;2023-01-10T10:17:52;101094.59;;;7.56;100.00
30636;BME280;17400;52.392;9.750;2023-01-10T10:20:34;101091.06;;;7.63;100.00
30636;BME280;17400;52.392;9.750;2023-01-10T10:23:16;101089.91;;;7.74;100.00
30636;BME280;17400;52.392;9.750;2023-01-10T10:25:55;101081.63;;;7.76;100.00
30636;BME280;17400;52.392;9.750;2023-01-10T10:28:55;101091.72;;;7.65;100.00
30636;BME280;17400;52.392;9.750;2023-01-10T10:31:41;101078.59;;;7.62;100.00
30636;BME280;17400;52.392;9.750;2023-01-10T10:34:22;101083.47;;;7.67;100.00
30636;BME280;17400;52.392;9.750;2023-01-10T10:36:53;101085.00;;;7.70;100.00
30636;BME280;17400;52.392;9.750;2023-01-10T10:39:30;101093.75;;;7.72;100.00
30636;BME280;17400;52.392;9.750;2023-01-10T10:42:02;101091.88;;;7.80;100.00
30636;BME280;17400;52.392;9.750;2023-01-10T10:44:35;101095.97;;;7.84;100.00
30636;BME280;17400;52.392;9.750;2023-01-10T10:47:12;101098.66;;;7.84;100.00
30636;BME280;17400;52.392;9.750;2023-01-10T10:49:42;101108.06;;;7.80;100.00
30636;BME280;17400;52.392;9.750;2023-01-10T10:52:19;101105.22;;;7.82;100.00
30636;BME280;17400;52.392;9.750;2023-01-10T10:54:50;101107.91;;;7.74;100.00
30636;BME280;17400;52.392;9.750;2023-01-10T10:57:20;101106.53;;;7.78;100.00
30636;BME280;17400;52.392;9.750;2023-01-10T10:59:50;101099.16;;;7.72;100.00
30636;BME280;17400;52.392;9.750;2023-01-10T11:02:22;101108.75;;;7.74;100.00
30636;BME280;17400;52.392;9.750;2023-01-10T11:04:53;101111.28;;;7.67;100.00
30636;BME280;17400;52.392;9.750;2023-01-10T11:07:22;101111.28;;;7.67;100.00
30636;BME280;17400;52.392;9.750;2023-01-10T11:09:53;101114.63;;;7.78;100.00
30636;BME280;17400;52.392;9.750;2023-01-10T11:12:30;101110.44;;;7.75;100.00
30636;BME280;17400;52.392;9.750;2023-01-10T11:15:02;101115.84;;;7.75;100.00
30636;BME280;17400;52.392;9.750;2023-01-10T11:17:31;101100.66;;;7.74;100.00
30636;BME280;17400;52.392;9.750;2023-01-10T11:20:01;101120.72;;;7.80;100.00
30636;BME280;17400;52.392;9.750;2023-01-10T11:22:33;101114.97;;;7.75;100.00
30636;BME280;17400;52.392;9.750;2023-01-10T11:25:13;101115.84;;;7.75;100.00
30636;BME280;17400;52.392;9.750;2023-01-10T11:27:46;101118.84;;;7.80;100.00
30636;BME280;17400;52.392;9.750;2023-01-10T11:30:17;101118.00;;;7.80;100.00
30636;BME280;17400;52.392;9.750;2023-01-10T11:32:51;101121.53;;;7.72;100.00
30636;BME280;17400;52.392;9.750;2023-01-10T11:35:20;101110.75;;;7.72;100.00
30636;BME280;17400;52.392;9.750;2023-01-10T11:37:58;101118.69;;;7.74;100.00
30636;BME280;17400;52.392;9.750;2023-01-10T11:40:28;101108.75;;;7.74;100.00
30636;BME280;17400;52.392;9.750;2023-01-10T11:42:57;101096.44;;;7.80;100.00
30636;BME280;17400;52.392;9.750;2023-01-10T11:45:29;101100.66;;;7.91;100.00
30636;BME280;17400;52.392;9.750;2023-01-10T11:48:05;101102.34;;;7.92;100.00
30636;BME280;17400;52.392;9.750;2023-01-10T11:50:35;101103.03;;;7.94;100.00
30636;BME280;17400;52.392;9.750;2023-01-10T11:53:04;101101.66;;;7.90;100.00
30636;BME280;17400;52.392;9.750;2023-01-10T11:55:36;101102.00;;;7.87;100.00
30636;BME280;17400;52.392;9.750;2023-01-10T11:58:09;101101.00;;;7.88;100.00
30636;BME280;17400;52.392;9.750;2023-01-10T12:00:40;101108.41;;;7.86;100.00
30636;BME280;17400;52.392;9.750;2023-01-10T12:03:19;101106.38;;;7.88;100.00
30636;BME280;17400;52.392;9.750;2023-01-10T12:05:52;101103.69;;;7.88;100.00
30636;BME280;17400;52.392;9.750;2023-01-10T12:08:26;101113.63;;;7.87;100.00
30636;BME280;17400;52.392;9.750;2023-01-10T12:11:01;101101.84;;;7.80;100.00
30636;BME280;17400;52.392;9.750;2023-01-10T12:13:42;101109.25;;;7.86;100.00
30636;BME280;17400;52.392;9.750;2023-01-10T12:16:14;101108.91;;;7.89;100.00
30636;BME280;17400;52.392;9.750;2023-01-10T12:18:42;101099.13;;;7.88;100.00
30636;BME280;17400;52.392;9.750;2023-01-10T12:21:12;101100.13;;;7.87;100.00
30636;BME280;17400;52.392;9.750;2023-01-10T12:23:42;101101.66;;;7.90;100.00
30636;BME280;17400;52.392;9.750;2023-01-10T12:26:12;101109.06;;;7.96;100.00
30636;BME280;17400;52.392;9.750;2023-01-10T12:28:43;101098.78;;;7.99;100.00
30636;BME280;17400;52.392;9.750;2023-01-10T12:31:14;101102.00;;;8.03;100.00
30636;BME280;17400;52.392;9.750;2023-01-10T12:33:45;101104.00;;;8.01;100.00
30636;BME280;17400;52.392;9.750;2023-01-10T12:36:22;101094.22;;;8.00;100.00
30636;BME280;17400;52.392;9.750;2023-01-10T12:39:01;101096.06;;;8.08;100.00
30636;BME280;17400;52.392;9.750;2023-01-10T12:41:36;101100.78;;;8.14;100.00
30636;BME280;17400;52.392;9.750;2023-01-10T12:44:27;101095.22;;;8.15;100.00
30636;BME280;17400;52.392;9.750;2023-01-10T12:47:02;101102.31;;;8.08;100.00
30636;BME280;17400;52.392;9.750;2023-01-10T12:49:43;101105.69;;;8.10;100.00
30636;BME280;17400;52.392;9.750;2023-01-10T12:52:17;101102.97;;;8.10;100.00
30636;BME280;17400;52.392;9.750;2023-01-10T12:54:48;101107.72;;;8.00;100.00
30636;BME280;17400;52.392;9.750;2023-01-10T12:57:23;101107.41;;;8.03;100.00
30636;BME280;17400;52.392;9.750;2023-01-10T12:59:53;101108.03;;;8.05;100.00
30636;BME280;17400;52.392;9.750;2023-01-10T13:02:25;101113.78;;;8.10;100.00
30636;BME280;17400;52.392;9.750;2023-01-10T13:04:59;101112.59;;;8.05;100.00
30636;BME280;17400;52.392;9.750;2023-01-10T13:07:31;101104.38;;;7.98;100.00
30636;BME280;17400;52.392;9.750;2023-01-10T13:10:01;101096.09;;;7.99;100.00
30636;BME280;17400;52.392;9.750;2023-01-10T13:12:34;101102.31;;;8.00;100.00